createdAt,value
2023-03-20T00:01:17.136Z,100827.28
2023-03-20T00:03:44.606Z,100850.13
2023-03-20T00:06:16.402Z,100835.03
2023-03-20T00:08:46.002Z,100857.38
2023-03-20T00:11:27.097Z,100851.00
2023-03-20T00:13:54.947Z,100809.34
2023-03-20T00:16:24.385Z,100850.78
2023-03-20T00:18:53.011Z,100842.81
2023-03-20T00:21:21.627Z,100827.41
2023-03-20T00:23:49.268Z,100773.22
2023-03-20T00:26:18.294Z,100828.59
2023-03-20T00:28:46.707Z,100784.06
2023-03-20T00:31:20.843Z,100804.38
2023-03-20T00:33:48.194Z,100835.84
2023-03-20T00:36:15.480Z,100814.09
2023-03-20T00:38:44.048Z,100835.59
2023-03-20T00:41:24.102Z,100821.75
2023-03-20T00:43:54.299Z,100797.66
2023-03-20T00:46:22.027Z,100775.19
2023-03-20T00:48:49.513Z,100838.72
2023-03-20T00:51:17.035Z,100847.41
2023-03-20T00:53:45.637Z,100823.94
2023-03-20T00:56:32.153Z,100827.19
2023-03-20T00:59:00.483Z,100825.22
2023-03-20T01:01:28.547Z,100825.75
2023-03-20T01:03:55.692Z,100821.09
2023-03-20T01:06:23.177Z,100778.38
2023-03-20T01:08:51.746Z,100821.88
2023-03-20T01:11:23.397Z,100838.53
2023-03-20T01:13:52.273Z,100822.03
2023-03-20T01:16:22.396Z,100820.63
2023-03-20T01:18:49.885Z,100829.19
2023-03-20T01:21:17.376Z,100817.63
2023-03-20T01:23:44.520Z,100834.00
2023-03-20T01:26:22.701Z,100805.59
2023-03-20T01:28:49.947Z,100815.56
2023-03-20T01:31:18.377Z,100778.31
2023-03-20T01:33:46.733Z,100811.13
2023-03-20T01:36:17.856Z,100817.28
2023-03-20T01:38:45.324Z,100787.19
2023-03-20T01:41:14.666Z,100782.84
2023-03-20T01:43:44.098Z,100805.50
2023-03-20T01:46:18.147Z,100799.25
2023-03-20T01:49:08.485Z,100801.03
2023-03-20T01:51:36.325Z,100800.81
2023-03-20T01:54:07.357Z,100800.09
2023-03-20T01:56:39.471Z,100815.59
2023-03-20T01:59:14.348Z,100794.91
2023-03-20T02:01:42.846Z,100809.44
2023-03-20T02:04:10.579Z,100784.09
2023-03-20T02:06:38.503Z,100810.22
2023-03-20T02:09:05.532Z,100810.94
2023-03-20T02:11:33.599Z,100784.63
2023-03-20T02:14:02.769Z,100813.03
2023-03-20T02:16:33.948Z,100787.59
2023-03-20T02:19:01.541Z,100785.94
2023-03-20T02:22:07.969Z,100793.38
2023-03-20T02:25:15.791Z,100780.84
2023-03-20T02:27:58.174Z,100804.69
2023-03-20T02:30:48.589Z,100796.63
2023-03-20T02:33:56.714Z,100716.59
2023-03-20T02:36:55.319Z,100799.97
2023-03-20T02:39:27.719Z,100803.13
2023-03-20T02:42:00.690Z,100808.16
2023-03-20T02:44:35.375Z,100808.53
2023-03-20T02:47:08.036Z,100817.94
2023-03-20T02:49:52.174Z,100806.00
2023-03-20T02:52:23.977Z,100814.16
2023-03-20T02:55:01.321Z,100729.13
2023-03-20T02:57:41.750Z,100813.09
2023-03-20T03:00:15.198Z,100817.56
2023-03-20T03:02:48.208Z,100813.94
2023-03-20T03:05:19.421Z,100818.16
2023-03-20T03:07:49.950Z,100801.19
2023-03-20T03:10:54.757Z,100818.75
2023-03-20T03:13:27.545Z,100807.56
2023-03-20T03:16:03.131Z,100783.63
2023-03-20T03:18:32.290Z,100805.88
2023-03-20T03:21:02.116Z,100809.47
2023-03-20T03:23:31.740Z,100814.75
2023-03-20T03:26:03.760Z,100789.28
2023-03-20T03:28:38.901Z,100799.88
2023-03-20T03:31:08.936Z,100812.75
2023-03-20T03:33:39.411Z,100781.34
2023-03-20T03:36:17.442Z,100807.47
2023-03-20T03:38:54.288Z,100770.03
2023-03-20T03:41:30.529Z,100817.22
2023-03-20T03:44:06.953Z,100814.94
2023-03-20T03:46:44.438Z,100818.06
2023-03-20T03:49:17.003Z,100819.63
2023-03-20T03:51:48.269Z,100812.66
2023-03-20T03:54:19.884Z,100807.84
2023-03-20T03:56:51.227Z,100804.00
2023-03-20T03:59:24.588Z,100770.16
2023-03-20T04:01:53.262Z,100773.66
2023-03-20T04:04:22.257Z,100807.47
2023-03-20T04:06:49.786Z,100817.59
2023-03-20T04:09:16.923Z,100809.03
2023-03-20T04:11:49.338Z,100803.97
2023-03-20T04:14:18.301Z,100824.81
2023-03-20T04:16:46.376Z,100759.47
2023-03-20T04:19:13.660Z,100816.16
2023-03-20T04:21:41.245Z,100813.84
2023-03-20T04:24:08.801Z,100802.88
2023-03-20T04:26:36.085Z,100785.31
2023-03-20T04:29:03.269Z,100803.84
2023-03-20T04:31:33.015Z,100813.22
2023-03-20T04:34:00.284Z,100814.91
2023-03-20T04:36:27.654Z,100806.13
2023-03-20T04:38:57.400Z,100815.88
2023-03-20T04:41:26.700Z,100826.59
2023-03-20T04:43:54.052Z,100803.63
2023-03-20T04:46:21.971Z,100825.16
2023-03-20T04:48:50.506Z,100821.66
2023-03-20T04:51:17.762Z,100840.19
2023-03-20T04:53:44.725Z,100818.66
2023-03-20T04:56:12.325Z,100827.78
2023-03-20T04:58:39.453Z,100839.00
2023-03-20T05:01:07.554Z,100804.91
2023-03-20T05:03:35.369Z,100830.53
2023-03-20T05:06:04.780Z,100750.91
2023-03-20T05:08:31.936Z,100849.09
2023-03-20T05:10:59.348Z,100846.44
2023-03-20T05:13:27.496Z,100841.03
2023-03-20T05:15:54.991Z,100851.38
2023-03-20T05:18:21.865Z,100834.19
2023-03-20T05:20:49.475Z,100833.97
2023-03-20T05:23:17.731Z,100850.69
2023-03-20T05:25:44.961Z,100856.69
2023-03-20T05:28:11.949Z,100850.63
2023-03-20T05:30:39.207Z,100857.97
2023-03-20T05:33:06.409Z,100868.56
2023-03-20T05:35:33.907Z,100863.72
2023-03-20T05:38:00.904Z,100866.56
2023-03-20T05:40:29.862Z,100862.09
2023-03-20T05:42:56.960Z,100876.47
2023-03-20T05:45:24.498Z,100883.34
2023-03-20T05:47:51.597Z,100875.16
2023-03-20T05:50:18.984Z,100884.22
2023-03-20T05:52:47.411Z,100890.66
2023-03-20T05:55:14.845Z,100868.06
2023-03-20T05:57:43.229Z,100887.06
2023-03-20T06:00:11.551Z,100887.56
2023-03-20T06:02:38.763Z,100891.13
2023-03-20T06:05:06.429Z,100842.47
2023-03-20T06:07:33.429Z,100885.91
2023-03-20T06:10:00.376Z,100868.63
2023-03-20T06:12:27.903Z,100871.09
2023-03-20T06:14:56.572Z,100859.22
2023-03-20T06:17:23.829Z,100873.25
2023-03-20T06:19:50.973Z,100816.72
2023-03-20T06:22:18.349Z,100881.84
2023-03-20T06:24:45.430Z,100871.69
2023-03-20T06:27:13.035Z,100873.84
2023-03-20T06:29:40.085Z,100883.34
2023-03-20T06:32:12.389Z,100865.50
2023-03-20T06:34:39.334Z,100870.41
2023-03-20T06:37:06.652Z,100876.41
2023-03-20T06:39:35.077Z,100879.19
2023-03-20T06:42:03.317Z,100882.72
2023-03-20T06:44:30.636Z,100885.25
2023-03-20T06:46:58.562Z,100775.47
2023-03-20T06:49:27.857Z,100880.66
2023-03-20T06:51:55.199Z,100869.16
2023-03-20T06:54:23.168Z,100874.91
2023-03-20T06:56:50.658Z,100884.53
2023-03-20T06:59:18.063Z,100877.66
2023-03-20T07:01:45.606Z,100834.91
2023-03-20T07:04:12.875Z,100878.88
2023-03-20T07:06:41.610Z,100885.69
2023-03-20T07:09:08.584Z,100877.19
2023-03-20T07:11:35.969Z,100863.16
2023-03-20T07:14:03.627Z,100886.00
2023-03-20T07:16:30.967Z,100885.22
2023-03-20T07:18:58.033Z,100897.03
2023-03-20T07:21:25.472Z,100887.88
2023-03-20T07:23:54.244Z,100896.03
2023-03-20T07:26:21.399Z,100888.34
2023-03-20T07:28:48.427Z,100889.06
2023-03-20T07:31:20.594Z,100886.41
2023-03-20T07:33:47.803Z,100893.34
2023-03-20T07:36:15.438Z,100858.91
2023-03-20T07:38:42.469Z,100892.22
2023-03-20T07:41:11.208Z,100890.00
2023-03-20T07:43:38.579Z,100883.66
2023-03-20T07:46:08.048Z,100895.84
2023-03-20T07:48:36.138Z,100872.22
2023-03-20T07:51:03.925Z,100884.84
2023-03-20T07:53:30.951Z,100864.78
2023-03-20T07:55:58.464Z,100785.34
2023-03-20T07:58:26.866Z,100865.47
2023-03-20T08:00:56.737Z,100880.22
2023-03-20T08:03:24.040Z,100882.38
2023-03-20T08:05:54.193Z,100873.47
2023-03-20T08:08:21.697Z,100873.41
2023-03-20T08:10:49.116Z,100858.47
2023-03-20T08:13:16.167Z,100858.56
2023-03-20T08:15:46.645Z,100866.78
2023-03-20T08:18:13.871Z,100881.34
2023-03-20T08:20:41.202Z,100881.81
2023-03-20T08:23:08.686Z,100865.59
2023-03-20T08:25:36.129Z,100877.09
2023-03-20T08:28:03.850Z,100867.53
2023-03-20T08:30:31.950Z,100879.00
2023-03-20T08:33:00.569Z,100880.09
2023-03-20T08:35:33.365Z,100864.50
2023-03-20T08:38:01.056Z,100865.03
2023-03-20T08:40:28.321Z,100883.13
2023-03-20T08:42:55.578Z,100852.91
2023-03-20T08:45:25.906Z,100882.41
2023-03-20T08:47:53.193Z,100879.34
2023-03-20T08:50:22.008Z,100881.56
2023-03-20T08:52:49.034Z,100881.94
2023-03-20T08:55:17.198Z,100845.91
2023-03-20T08:57:44.280Z,100893.63
2023-03-20T09:00:15.476Z,100880.41
2023-03-20T09:02:43.956Z,100867.31
2023-03-20T09:05:11.994Z,100850.22
2023-03-20T09:07:40.463Z,100869.91
2023-03-20T09:10:08.433Z,100878.25
2023-03-20T09:12:36.017Z,100885.75
2023-03-20T09:15:03.773Z,100875.94
2023-03-20T09:17:31.737Z,100871.63
2023-03-20T09:19:59.408Z,100868.44
2023-03-20T09:22:26.485Z,100864.06
2023-03-20T09:24:55.486Z,100878.88
2023-03-20T09:27:22.632Z,100877.56
2023-03-20T09:29:50.175Z,100834.50
2023-03-20T09:32:17.735Z,100880.25
2023-03-20T09:34:45.348Z,100871.72
2023-03-20T09:37:12.489Z,100857.94
2023-03-20T09:39:40.193Z,100796.84
2023-03-20T09:42:25.596Z,100799.56
2023-03-20T09:45:01.684Z,100824.63
2023-03-20T09:47:36.232Z,100837.22
2023-03-20T09:50:22.403Z,100857.53
2023-03-20T09:52:58.121Z,100822.59
2023-03-20T09:55:34.484Z,100850.22
2023-03-20T09:58:10.571Z,100849.28
2023-03-20T10:00:40.937Z,100807.91
2023-03-20T10:03:17.128Z,100793.91
2023-03-20T10:05:50.227Z,100827.03
2023-03-20T10:08:26.126Z,100831.34
2023-03-20T10:11:04.374Z,100837.81
2023-03-20T10:13:44.954Z,100756.28
2023-03-20T10:16:19.916Z,100767.69
2023-03-20T10:18:56.060Z,100799.03
2023-03-20T10:21:31.247Z,100825.16
2023-03-20T10:24:03.485Z,100814.88
2023-03-20T10:26:33.865Z,100819.50
2023-03-20T10:29:05.762Z,100807.66
2023-03-20T10:31:43.301Z,100728.28
2023-03-20T10:34:35.254Z,100810.28
2023-03-20T10:37:20.892Z,100746.19
2023-03-20T10:39:57.653Z,100806.25
2023-03-20T10:42:29.087Z,100805.81
2023-03-20T10:45:02.168Z,100784.44
2023-03-20T10:47:33.554Z,100799.34
2023-03-20T10:50:06.046Z,100782.47
2023-03-20T10:52:37.531Z,100803.88
2023-03-20T10:55:10.496Z,100757.78
2023-03-20T10:57:42.263Z,100776.81
2023-03-20T11:00:21.451Z,100742.59
2023-03-20T11:02:49.398Z,100789.16
2023-03-20T11:05:25.018Z,100778.53
2023-03-20T11:08:02.989Z,100714.34
2023-03-20T11:10:35.868Z,100757.75
2023-03-20T11:13:16.805Z,100700.25
2023-03-20T11:15:45.637Z,100763.69
2023-03-20T11:18:16.912Z,100729.97
2023-03-20T11:20:51.491Z,100758.09
2023-03-20T11:23:24.374Z,100665.81
2023-03-20T11:25:56.661Z,100672.91
2023-03-20T11:28:32.554Z,100675.25
2023-03-20T11:31:05.821Z,100738.81
2023-03-20T11:33:39.026Z,100737.06
2023-03-20T11:36:12.272Z,100745.53
2023-03-20T11:38:44.950Z,100697.28
2023-03-20T11:41:19.074Z,100733.97
2023-03-20T11:43:46.612Z,100733.34
2023-03-20T11:46:15.532Z,100720.41
2023-03-20T11:48:45.792Z,100717.13
2023-03-20T11:51:16.738Z,100719.63
2023-03-20T11:54:01.060Z,100723.22
2023-03-20T11:56:29.831Z,100717.47
2023-03-20T11:59:00.138Z,100689.78
2023-03-20T12:01:29.917Z,100719.38
2023-03-20T12:04:03.389Z,100680.41
2023-03-20T12:06:42.582Z,100711.69
2023-03-20T12:09:18.733Z,100620.28
2023-03-20T12:11:52.904Z,100654.81
2023-03-20T12:14:31.162Z,100708.94
2023-03-20T12:17:18.941Z,100700.84
2023-03-20T12:19:49.344Z,100696.47
2023-03-20T12:22:23.994Z,100676.84
2023-03-20T12:24:58.085Z,100667.84
2023-03-20T12:27:30.028Z,100694.38
2023-03-20T12:30:03.748Z,100616.72
2023-03-20T12:32:38.598Z,100685.25
2023-03-20T12:35:14.834Z,100615.06
2023-03-20T12:37:43.766Z,100683.53
2023-03-20T12:40:16.622Z,100665.84
2023-03-20T12:42:57.094Z,100675.47
2023-03-20T12:45:30.035Z,100683.59
2023-03-20T12:48:34.298Z,100635.78
2023-03-20T12:51:08.963Z,100668.63
2023-03-20T12:53:51.019Z,100674.47
2023-03-20T12:56:30.613Z,100668.84
2023-03-20T12:59:03.603Z,100673.66
2023-03-20T13:01:33.057Z,100592.69
2023-03-20T13:04:22.265Z,100662.41
2023-03-20T13:06:53.403Z,100583.53
2023-03-20T13:09:48.154Z,100647.63
2023-03-20T13:12:30.362Z,100652.81
2023-03-20T13:15:10.723Z,100651.38
2023-03-20T13:17:44.794Z,100648.63
2023-03-20T13:20:30.558Z,100629.22
2023-03-20T13:23:10.018Z,100599.25
2023-03-20T13:25:53.864Z,100650.63
2023-03-20T13:28:27.162Z,100604.25
2023-03-20T13:30:59.918Z,100596.97
2023-03-20T13:33:40.048Z,100638.19
2023-03-20T13:36:20.354Z,100615.91
2023-03-20T13:38:50.281Z,100646.53
2023-03-20T13:41:17.586Z,100642.78
2023-03-20T13:43:49.681Z,100641.13
2023-03-20T13:46:19.839Z,100626.97
2023-03-20T13:48:47.444Z,100643.88
2023-03-20T13:51:24.147Z,100641.19
2023-03-20T13:54:04.578Z,100578.28
2023-03-20T13:56:40.808Z,100639.22
2023-03-20T13:59:36.666Z,100634.19
2023-03-20T14:02:20.114Z,100615.63
2023-03-20T14:04:51.054Z,100637.03
2023-03-20T14:07:31.866Z,100638.44
2023-03-20T14:10:35.523Z,100627.63
2023-03-20T14:13:07.573Z,100629.91
2023-03-20T14:15:37.953Z,100592.78
2023-03-20T14:18:07.021Z,100575.09
2023-03-20T14:20:37.119Z,100563.75
2023-03-20T14:23:07.519Z,100626.66
2023-03-20T14:25:40.570Z,100563.00
2023-03-20T14:28:24.577Z,100626.44
2023-03-20T14:31:12.792Z,100618.34
2023-03-20T14:33:44.333Z,100555.44
2023-03-20T14:36:18.629Z,100623.38
2023-03-20T14:38:54.780Z,100622.75
2023-03-20T14:41:29.202Z,100622.38
2023-03-20T14:44:17.645Z,100572.59
2023-03-20T14:46:51.911Z,100590.28
2023-03-20T14:49:34.081Z,100617.97
2023-03-20T14:52:15.947Z,100626.00
2023-03-20T14:54:53.029Z,100604.22
2023-03-20T14:57:35.754Z,100621.88
2023-03-20T15:00:18.547Z,100588.34
2023-03-20T15:02:49.301Z,100618.97
2023-03-20T15:05:25.993Z,100614.22
2023-03-20T15:07:53.583Z,100605.69
2023-03-20T15:10:22.089Z,100615.66
2023-03-20T15:12:50.227Z,100600.47
2023-03-20T15:15:26.563Z,100577.97
2023-03-20T15:17:53.935Z,100618.16
2023-03-20T15:20:23.046Z,100583.38
2023-03-20T15:22:52.716Z,100615.19
2023-03-20T15:25:22.945Z,100599.75
2023-03-20T15:27:52.003Z,100609.72
2023-03-20T15:30:20.506Z,100620.69
2023-03-20T15:32:50.111Z,100588.59
2023-03-20T15:35:19.592Z,100599.75
2023-03-20T15:37:49.580Z,100590.72
2023-03-20T15:40:25.345Z,100600.91
2023-03-20T15:42:53.912Z,100580.66
2023-03-20T15:45:26.699Z,100605.38
2023-03-20T15:48:01.065Z,100617.97
2023-03-20T15:50:32.734Z,100616.69
2023-03-20T15:53:01.273Z,100586.09
2023-03-20T15:55:30.320Z,100623.75
2023-03-20T15:58:00.900Z,100604.81
2023-03-20T16:00:32.006Z,100597.84
2023-03-20T16:03:01.030Z,100540.25
2023-03-20T16:05:30.236Z,100620.09
2023-03-20T16:07:58.023Z,100628.94
2023-03-20T16:10:31.093Z,100601.25
2023-03-20T16:12:58.957Z,100567.47
2023-03-20T16:15:29.736Z,100624.78
2023-03-20T16:17:59.518Z,100560.03
2023-03-20T16:20:28.763Z,100632.09
2023-03-20T16:23:01.812Z,100634.53
2023-03-20T16:25:30.647Z,100552.09
2023-03-20T16:27:58.597Z,100639.53
2023-03-20T16:30:27.525Z,100640.00
2023-03-20T16:32:59.814Z,100640.84
2023-03-20T16:35:30.077Z,100628.91
2023-03-20T16:37:59.230Z,100652.94
2023-03-20T16:40:37.435Z,100633.00
2023-03-20T16:43:06.868Z,100661.19
2023-03-20T16:45:35.991Z,100655.41
2023-03-20T16:48:29.812Z,100655.97
2023-03-20T16:51:04.069Z,100626.16
2023-03-20T16:53:40.407Z,100616.97
2023-03-20T16:56:13.638Z,100626.50
2023-03-20T16:58:41.419Z,100657.09
2023-03-20T17:01:15.851Z,100633.16
2023-03-20T17:06:50.128Z,100673.31
2023-03-20T17:09:24.815Z,100655.94
2023-03-20T17:12:01.295Z,100674.69
2023-03-20T17:14:28.527Z,100659.19
2023-03-20T17:16:57.769Z,100686.16
2023-03-20T17:19:25.698Z,100674.94
2023-03-20T17:21:53.093Z,100680.84
2023-03-20T17:24:21.344Z,100675.72
2023-03-20T17:26:54.968Z,100625.63
2023-03-20T17:29:22.423Z,100680.44
2023-03-20T17:31:50.394Z,100614.44
2023-03-20T17:34:18.121Z,100687.00
2023-03-20T17:36:45.242Z,100698.94
2023-03-20T17:39:18.561Z,100690.91
2023-03-20T17:41:46.430Z,100697.81
2023-03-20T17:44:15.666Z,100686.41
2023-03-20T17:46:56.643Z,100695.19
2023-03-20T17:49:27.793Z,100690.00
2023-03-20T17:51:55.400Z,100694.22
2023-03-20T17:54:22.946Z,100695.09
2023-03-20T17:56:50.412Z,100658.84
2023-03-20T17:59:20.088Z,100691.69
2023-03-20T18:01:47.217Z,100693.19
2023-03-20T18:04:14.672Z,100696.34
2023-03-20T18:06:41.965Z,100693.41
2023-03-20T18:09:13.485Z,100608.63
2023-03-20T18:11:40.693Z,100699.63
2023-03-20T18:14:08.617Z,100690.63
2023-03-20T18:16:37.063Z,100683.28
2023-03-20T18:19:04.461Z,100705.06
2023-03-20T18:21:31.639Z,100701.19
2023-03-20T18:23:59.071Z,100701.03
2023-03-20T18:26:27.206Z,100709.91
2023-03-20T18:28:56.273Z,100675.31
2023-03-20T18:31:23.471Z,100692.69
2023-03-20T18:33:53.054Z,100731.38
2023-03-20T18:36:22.616Z,100696.38
2023-03-20T18:38:51.619Z,100650.22
2023-03-20T18:41:18.784Z,100733.06
2023-03-20T18:43:46.740Z,100675.69
2023-03-20T18:46:15.079Z,100736.59
2023-03-20T18:49:00.700Z,100672.19
2023-03-20T18:51:27.931Z,100687.22
2023-03-20T18:53:55.623Z,100729.75
2023-03-20T18:56:26.393Z,100719.06
2023-03-20T18:58:54.838Z,100733.28
2023-03-20T19:01:21.964Z,100740.50
2023-03-20T19:03:49.642Z,100742.69
2023-03-20T19:06:20.512Z,100733.78
2023-03-20T19:08:49.092Z,100743.00
2023-03-20T19:11:19.637Z,100728.44
2023-03-20T19:13:51.199Z,100695.94
2023-03-20T19:16:24.755Z,100707.66
2023-03-20T19:18:53.200Z,100654.25
2023-03-20T19:21:26.240Z,100661.06
2023-03-20T19:23:54.606Z,100709.16
2023-03-20T19:26:24.571Z,100729.94
2023-03-20T19:28:53.070Z,100722.72
2023-03-20T19:31:20.896Z,100667.63
2023-03-20T19:33:49.218Z,100670.09
2023-03-20T19:36:26.090Z,100752.88
2023-03-20T19:38:54.109Z,100686.66
2023-03-20T19:41:21.435Z,100678.78
2023-03-20T19:43:53.658Z,100760.38
2023-03-20T19:46:41.049Z,100761.69
2023-03-20T19:49:19.030Z,100757.84
2023-03-20T19:51:48.847Z,100673.22
2023-03-20T19:54:17.215Z,100765.81
2023-03-20T19:56:44.619Z,100695.97
2023-03-20T19:59:13.928Z,100762.16
2023-03-20T20:01:43.124Z,100741.94
2023-03-20T20:04:11.301Z,100721.00
2023-03-20T20:06:39.836Z,100765.38
2023-03-20T20:09:10.295Z,100760.16
2023-03-20T20:11:40.474Z,100759.66
2023-03-20T20:14:10.187Z,100716.09
2023-03-20T20:16:43.170Z,100691.66
2023-03-20T20:19:11.240Z,100762.84
2023-03-20T20:24:32.807Z,100755.13
2023-03-20T20:27:15.728Z,100746.06
2023-03-20T20:29:46.909Z,100760.47
2023-03-20T20:32:17.810Z,100754.16
2023-03-20T20:40:28.645Z,100734.06
2023-03-20T20:43:01.603Z,100669.88
2023-03-20T20:45:31.605Z,100671.06
2023-03-20T20:47:59.851Z,100745.63
2023-03-20T20:50:30.611Z,100741.22
2023-03-20T20:52:57.774Z,100739.75
2023-03-20T20:55:27.398Z,100744.59
2023-03-20T20:57:55.839Z,100746.72
2023-03-20T21:00:37.062Z,100709.56
2023-03-20T21:03:09.174Z,100736.50
2023-03-20T21:05:38.734Z,100690.28
2023-03-20T21:08:07.257Z,100694.47
2023-03-20T21:10:35.940Z,100734.19
2023-03-20T21:13:03.393Z,100701.19
2023-03-20T21:15:30.765Z,100728.97
2023-03-20T21:18:01.462Z,100723.13
2023-03-20T21:20:29.815Z,100716.91
2023-03-20T21:22:56.967Z,100631.34
2023-03-20T21:25:38.671Z,100712.06
2023-03-20T21:28:08.993Z,100695.97
2023-03-20T21:30:43.219Z,100719.25
2023-03-20T21:33:14.064Z,100632.44
2023-03-20T21:35:45.080Z,100710.03
2023-03-20T21:38:55.502Z,100709.03
2023-03-20T21:41:07.040Z,100671.88
2023-03-20T21:43:35.732Z,100698.66
2023-03-20T21:49:41.202Z,100623.50
2023-03-20T22:02:49.370Z,100638.72
2023-03-20T22:05:52.822Z,100676.38
2023-03-20T22:17:40.738Z,100675.50
2023-03-20T22:23:03.314Z,100673.47
2023-03-20T22:28:15.646Z,100655.19
2023-03-20T22:31:22.718Z,100670.28
2023-03-20T22:39:24.690Z,100675.03
2023-03-20T22:42:22.436Z,100682.69
2023-03-20T22:45:01.359Z,100665.75
2023-03-20T22:47:14.952Z,100659.50
2023-03-20T22:49:43.287Z,100665.06
2023-03-20T22:52:26.694Z,100677.31
2023-03-20T22:54:58.766Z,100681.00
2023-03-20T22:57:34.997Z,100669.91
2023-03-20T23:00:10.569Z,100679.59
2023-03-20T23:02:37.996Z,100679.34
2023-03-20T23:05:08.143Z,100685.31
2023-03-20T23:07:36.139Z,100678.41
2023-03-20T23:10:04.339Z,100596.22
2023-03-20T23:12:31.841Z,100679.84
2023-03-20T23:14:59.154Z,100679.50
2023-03-20T23:17:27.118Z,100645.31
2023-03-20T23:20:08.710Z,100685.00
2023-03-20T23:22:39.883Z,100681.34
2023-03-20T23:25:16.378Z,100683.47
2023-03-20T23:27:48.594Z,100683.66
2023-03-20T23:30:16.580Z,100658.50
2023-03-20T23:32:44.169Z,100679.50
2023-03-20T23:35:11.552Z,100636.59
2023-03-20T23:37:40.265Z,100591.06
2023-03-20T23:40:09.037Z,100673.31
2023-03-20T23:42:36.329Z,100669.16
2023-03-20T23:45:17.060Z,100565.53
2023-03-20T23:47:48.276Z,100654.19
2023-03-20T23:50:28.605Z,100674.66
2023-03-20T23:53:13.045Z,100598.63
2023-03-20T23:55:46.396Z,100585.50
2023-03-20T23:58:14.348Z,100609.50
